createdAt,value
2023-05-09T00:00:39.108Z,101142.34
2023-05-09T00:03:05.809Z,101144.94
2023-05-09T00:05:32.271Z,101140.75
2023-05-09T00:07:58.668Z,101143.97
2023-05-09T00:10:27.394Z,101145.56
2023-05-09T00:12:53.859Z,101151.22
2023-05-09T00:15:20.367Z,101145.13
2023-05-09T00:17:47.293Z,101145.44
2023-05-09T00:20:13.780Z,101148.25
2023-05-09T00:22:43.272Z,101142.91
2023-05-09T00:25:11.148Z,101133.81
2023-05-09T00:27:37.979Z,101140.34
2023-05-09T00:30:05.600Z,101134.59
2023-05-09T00:32:33.185Z,101128.81
2023-05-09T00:34:59.679Z,101136.06
2023-05-09T00:37:26.738Z,101126.44
2023-05-09T00:39:53.153Z,101135.16
2023-05-09T00:42:19.574Z,101129.03
2023-05-09T00:44:45.974Z,101134.34
2023-05-09T00:47:12.425Z,101126.66
2023-05-09T00:49:38.946Z,101131.38
2023-05-09T00:52:05.550Z,101125.38
2023-05-09T00:54:32.222Z,101125.84
2023-05-09T00:56:59.742Z,101129.34
2023-05-09T00:59:27.810Z,101123.69
2023-05-09T01:01:54.266Z,101129.66
2023-05-09T01:04:20.906Z,101125.38
2023-05-09T01:07:11.917Z,101118.47
2023-05-09T01:09:51.747Z,101123.09
2023-05-09T01:12:47.693Z,101118.28
2023-05-09T01:15:35.693Z,101110.16
2023-05-09T01:18:24.511Z,101108.47
2023-05-09T01:21:14.164Z,101112.06
2023-05-09T01:24:25.219Z,101110.03
2023-05-09T01:27:28.587Z,101117.22
2023-05-09T01:29:57.805Z,101108.22
2023-05-09T01:32:28.525Z,101109.34
2023-05-09T01:34:59.274Z,101120.91
2023-05-09T01:37:31.495Z,101122.53
2023-05-09T01:40:16.652Z,101121.47
2023-05-09T01:42:47.538Z,101118.28
2023-05-09T01:45:15.689Z,101109.47
2023-05-09T01:47:43.709Z,101112.06
2023-05-09T01:50:12.094Z,101107.31
2023-05-09T01:52:41.088Z,101102.13
2023-05-09T01:55:09.242Z,101092.91
2023-05-09T01:57:38.368Z,101098.19
2023-05-09T02:00:07.892Z,101102.88
2023-05-09T02:02:34.930Z,101101.72
2023-05-09T02:05:02.437Z,101100.22
2023-05-09T02:07:29.811Z,101110.03
2023-05-09T02:09:58.352Z,101113.91
2023-05-09T02:12:24.828Z,101108.03
2023-05-09T02:14:51.414Z,101100.59
2023-05-09T02:17:17.931Z,101101.88
2023-05-09T02:19:44.373Z,101105.38
2023-05-09T02:22:12.330Z,101112.41
2023-05-09T02:24:39.507Z,101106.94
2023-05-09T02:27:06.188Z,101101.19
2023-05-09T02:29:40.647Z,101098.00
2023-05-09T02:32:11.307Z,101097.00
2023-05-09T02:34:39.278Z,101100.97
2023-05-09T02:37:07.144Z,101097.56
2023-05-09T02:39:33.837Z,101099.72
2023-05-09T02:42:13.658Z,101091.78
2023-05-09T02:44:40.101Z,101098.75
2023-05-09T02:47:07.380Z,101099.78
2023-05-09T02:49:34.390Z,101106.09
2023-05-09T02:52:01.507Z,101107.88
2023-05-09T02:54:28.182Z,101107.34
2023-05-09T02:56:54.562Z,101106.75
2023-05-09T02:59:21.099Z,101106.97
2023-05-09T03:01:47.568Z,101102.06
2023-05-09T03:04:14.153Z,101094.28
2023-05-09T03:06:41.060Z,101100.81
2023-05-09T03:09:07.457Z,101093.97
2023-05-09T03:11:36.588Z,101092.38
2023-05-09T03:14:03.887Z,101090.91
2023-05-09T03:16:31.038Z,101081.44
2023-05-09T03:18:57.561Z,101085.75
2023-05-09T03:21:24.167Z,101082.34
2023-05-09T03:23:50.636Z,101086.53
2023-05-09T03:26:17.096Z,101092.56
2023-05-09T03:28:43.585Z,101086.78
2023-05-09T03:31:10.070Z,101082.16
2023-05-09T03:33:36.497Z,101075.38
2023-05-09T03:36:02.872Z,101081.03
2023-05-09T03:38:29.313Z,101080.03
2023-05-09T03:40:55.818Z,101085.59
2023-05-09T03:43:22.238Z,101083.88
2023-05-09T03:45:48.599Z,101086.16
2023-05-09T03:48:15.171Z,101085.97
2023-05-09T03:50:41.824Z,101094.78
2023-05-09T03:53:08.222Z,101091.94
2023-05-09T03:55:34.641Z,101090.72
2023-05-09T03:58:01.115Z,101095.13
2023-05-09T04:00:27.644Z,101099.28
2023-05-09T04:02:54.272Z,101103.22
2023-05-09T04:05:21.028Z,101100.94
2023-05-09T04:07:47.738Z,101101.63
2023-05-09T04:10:14.129Z,101101.03
2023-05-09T04:12:40.678Z,101107.03
2023-05-09T04:15:07.867Z,101109.31
2023-05-09T04:17:34.297Z,101103.63
2023-05-09T04:20:01.193Z,101109.63
2023-05-09T04:22:27.622Z,101106.13
2023-05-09T04:24:54.320Z,101107.16
2023-05-09T04:27:20.967Z,101101.84
2023-05-09T04:29:49.238Z,101104.22
2023-05-09T04:32:15.799Z,101106.38
2023-05-09T04:34:42.275Z,101106.81
2023-05-09T04:37:09.015Z,101104.78
2023-05-09T04:39:35.448Z,101098.59
2023-05-09T04:42:02.657Z,101104.78
2023-05-09T04:44:29.059Z,101105.25
2023-05-09T04:46:55.615Z,101105.25
2023-05-09T04:49:22.029Z,101105.94
2023-05-09T04:51:48.412Z,101101.00
2023-05-09T04:54:14.795Z,101111.38
2023-05-09T04:56:41.275Z,101110.72
2023-05-09T04:59:07.667Z,101105.53
2023-05-09T05:01:34.075Z,101104.94
2023-05-09T05:04:00.567Z,101115.63
2023-05-09T05:06:26.960Z,101116.56
2023-05-09T05:08:53.396Z,101121.97
2023-05-09T05:11:20.493Z,101122.34
2023-05-09T05:13:46.964Z,101118.41
2023-05-09T05:16:13.429Z,101106.53
2023-05-09T05:18:39.880Z,101097.28
2023-05-09T05:21:06.354Z,101097.41
2023-05-09T05:23:32.853Z,101096.72
2023-05-09T05:25:59.282Z,101097.16
2023-05-09T05:28:26.769Z,101103.16
2023-05-09T05:30:53.238Z,101098.31
2023-05-09T05:33:19.650Z,101101.09
2023-05-09T05:35:46.047Z,101108.22
2023-05-09T05:38:12.442Z,101110.13
2023-05-09T05:40:38.839Z,101128.97
2023-05-09T05:43:05.278Z,101120.38
2023-05-09T05:45:31.816Z,101137.00
2023-05-09T05:47:58.332Z,101130.56
2023-05-09T05:50:24.894Z,101130.22
2023-05-09T05:52:51.354Z,101127.78
2023-05-09T05:55:18.018Z,101137.16
2023-05-09T05:57:44.586Z,101145.19
2023-05-09T06:00:11.825Z,101153.03
2023-05-09T06:02:38.459Z,101152.81
2023-05-09T06:05:07.031Z,101146.25
2023-05-09T06:07:33.434Z,101144.44
2023-05-09T06:09:59.859Z,101139.22
2023-05-09T06:12:27.996Z,101141.00
2023-05-09T06:14:54.563Z,101137.69
2023-05-09T06:17:21.154Z,101121.59
2023-05-09T06:19:47.607Z,101125.03
2023-05-09T06:22:14.015Z,101132.00
2023-05-09T06:24:40.590Z,101139.44
2023-05-09T06:27:07.034Z,101138.28
2023-05-09T06:29:33.512Z,101129.00
2023-05-09T06:32:00.313Z,101118.81
2023-05-09T06:34:26.745Z,101114.81
2023-05-09T06:36:53.194Z,101117.22
2023-05-09T06:39:19.710Z,101112.13
2023-05-09T06:41:46.320Z,101115.72
2023-05-09T06:44:12.765Z,101118.59
2023-05-09T06:46:39.349Z,101120.88
2023-05-09T06:49:06.100Z,101117.66
2023-05-09T06:51:32.769Z,101112.38
2023-05-09T06:53:59.249Z,101108.66
2023-05-09T06:56:26.386Z,101109.41
2023-05-09T06:58:53.389Z,101101.72
2023-05-09T07:01:19.886Z,101103.28
2023-05-09T07:03:47.478Z,101085.91
2023-05-09T07:06:13.972Z,101090.72
2023-05-09T07:08:40.571Z,101096.13
2023-05-09T07:11:07.022Z,101088.81
2023-05-09T07:13:33.417Z,101092.59
2023-05-09T07:15:59.905Z,101088.72
2023-05-09T07:18:26.469Z,101082.34
2023-05-09T07:20:52.995Z,101086.31
2023-05-09T07:23:19.672Z,101082.94
2023-05-09T07:25:46.204Z,101081.94
2023-05-09T07:28:12.751Z,101084.13
2023-05-09T07:30:39.265Z,101093.94
2023-05-09T07:33:06.706Z,101087.94
2023-05-09T07:35:33.411Z,101093.53
2023-05-09T07:37:59.854Z,101100.16
2023-05-09T07:40:26.310Z,101109.16
2023-05-09T07:42:54.987Z,101103.56
2023-05-09T07:45:23.741Z,101102.75
2023-05-09T07:47:50.532Z,101104.25
2023-05-09T07:50:17.415Z,101111.56
2023-05-09T07:52:44.209Z,101112.28
2023-05-09T07:55:12.331Z,101102.50
2023-05-09T07:57:39.946Z,101102.41
2023-05-09T08:00:08.714Z,101100.56
2023-05-09T08:02:35.511Z,101099.19
2023-05-09T08:05:02.039Z,101098.56
2023-05-09T08:07:28.444Z,101104.34
2023-05-09T08:09:54.852Z,101104.44
2023-05-09T08:12:21.258Z,101104.44
2023-05-09T08:14:47.676Z,101099.28
2023-05-09T08:17:14.089Z,101096.69
2023-05-09T08:19:40.513Z,101091.44
2023-05-09T08:22:06.993Z,101103.63
2023-05-09T08:24:33.402Z,101094.91
2023-05-09T08:27:00.553Z,101094.91
2023-05-09T08:29:27.182Z,101093.47
2023-05-09T08:31:53.713Z,101082.41
2023-05-09T08:34:20.851Z,101084.31
2023-05-09T08:36:47.271Z,101087.72
2023-05-09T08:39:14.010Z,101076.34
2023-05-09T08:41:41.398Z,101082.16
2023-05-09T08:44:09.700Z,101077.47
2023-05-09T08:46:38.739Z,101088.59
2023-05-09T08:49:07.239Z,101082.25
2023-05-09T08:51:35.217Z,101076.03
2023-05-09T08:54:01.951Z,101062.84
2023-05-09T08:56:30.933Z,101069.88
2023-05-09T08:58:58.335Z,101058.28
2023-05-09T09:01:26.718Z,101065.63
2023-05-09T09:03:53.875Z,101061.34
2023-05-09T09:06:22.060Z,101055.16
2023-05-09T09:08:49.100Z,101053.03
2023-05-09T09:11:18.310Z,101036.72
2023-05-09T09:13:46.854Z,101049.03
2023-05-09T09:16:20.090Z,101046.53
2023-05-09T09:18:46.995Z,101040.59
2023-05-09T09:21:19.270Z,101039.00
2023-05-09T09:23:47.553Z,101026.25
2023-05-09T09:26:14.658Z,101031.63
2023-05-09T09:28:42.125Z,101020.94
2023-05-09T09:31:25.133Z,101025.75
2023-05-09T09:33:51.886Z,101021.81
2023-05-09T09:36:29.375Z,101013.31
2023-05-09T09:39:06.093Z,101015.09
2023-05-09T09:41:42.908Z,101009.88
2023-05-09T09:44:14.375Z,101008.94
2023-05-09T09:46:49.059Z,101010.28
2023-05-09T09:49:21.214Z,101003.59
2023-05-09T09:51:55.623Z,101007.75
2023-05-09T09:54:24.699Z,101009.41
2023-05-09T09:56:54.513Z,101008.34
2023-05-09T09:59:26.466Z,101006.88
2023-05-09T10:01:55.560Z,101010.25
2023-05-09T10:04:22.520Z,101002.47
2023-05-09T10:06:54.073Z,100986.94
2023-05-09T10:09:28.148Z,100987.97
2023-05-09T10:11:56.470Z,100985.38
2023-05-09T10:14:25.388Z,100989.88
2023-05-09T10:16:56.666Z,100990.28
2023-05-09T10:19:26.396Z,100990.59
2023-05-09T10:21:55.718Z,100982.53
2023-05-09T10:24:28.545Z,100982.09
2023-05-09T10:27:04.022Z,100982.91
2023-05-09T10:29:35.285Z,100986.59
2023-05-09T10:32:11.641Z,100970.97
2023-05-09T10:34:42.338Z,100978.56
2023-05-09T10:37:09.752Z,100967.78
2023-05-09T10:39:36.632Z,100967.16
2023-05-09T10:42:03.908Z,100968.31
2023-05-09T10:44:30.552Z,100971.41
2023-05-09T10:46:57.505Z,100962.44
2023-05-09T10:49:24.272Z,100962.31
2023-05-09T10:51:51.608Z,100958.75
2023-05-09T10:54:30.918Z,100953.94
2023-05-09T10:56:57.987Z,100947.44
2023-05-09T10:59:47.239Z,100955.88
2023-05-09T11:02:15.923Z,100950.66
2023-05-09T11:04:44.215Z,100935.25
2023-05-09T11:07:39.995Z,100925.97
2023-05-09T11:10:19.595Z,100925.81
2023-05-09T11:13:00.356Z,100922.47
2023-05-09T11:15:27.841Z,100922.78
2023-05-09T11:18:08.423Z,100908.88
2023-05-09T11:20:36.478Z,100905.22
2023-05-09T11:23:06.768Z,100904.03
2023-05-09T11:25:33.384Z,100907.16
2023-05-09T11:28:02.700Z,100897.91
2023-05-09T11:30:49.414Z,100886.88
2023-05-09T11:33:24.048Z,100874.84
2023-05-09T11:36:15.265Z,100882.09
2023-05-09T11:38:42.849Z,100888.25
2023-05-09T11:41:09.398Z,100883.38
2023-05-09T11:43:39.814Z,100880.44
2023-05-09T11:46:06.459Z,100883.84
2023-05-09T11:48:40.039Z,100875.66
2023-05-09T11:51:07.445Z,100871.22
2023-05-09T11:53:34.312Z,100864.81
2023-05-09T11:56:07.363Z,100863.03
2023-05-09T11:58:38.598Z,100861.09
2023-05-09T12:01:05.904Z,100860.06
2023-05-09T12:03:32.466Z,100839.19
2023-05-09T12:05:59.000Z,100845.97
2023-05-09T12:08:25.488Z,100835.53
2023-05-09T12:10:51.967Z,100831.72
2023-05-09T12:13:19.261Z,100827.63
2023-05-09T12:15:45.871Z,100821.00
2023-05-09T12:18:12.391Z,100824.09
2023-05-09T12:20:47.829Z,100819.75
2023-05-09T12:23:14.956Z,100797.78
2023-05-09T12:25:49.095Z,100809.91
2023-05-09T12:28:16.230Z,100800.72
2023-05-09T12:30:44.219Z,100800.41
2023-05-09T12:33:12.344Z,100803.16
2023-05-09T12:35:40.198Z,100803.72
2023-05-09T12:38:06.663Z,100795.16
2023-05-09T12:40:33.190Z,100792.13
2023-05-09T12:43:02.540Z,100790.41
2023-05-09T12:45:32.952Z,100788.72
2023-05-09T12:48:00.798Z,100781.44
2023-05-09T12:50:36.377Z,100780.19
2023-05-09T12:53:06.810Z,100774.66
2023-05-09T12:55:39.938Z,100771.63
2023-05-09T12:58:06.615Z,100765.88
2023-05-09T13:00:46.530Z,100766.41
2023-05-09T13:03:27.223Z,100763.97
2023-05-09T13:05:54.054Z,100755.25
2023-05-09T13:08:21.588Z,100754.59
2023-05-09T13:10:48.011Z,100750.63
2023-05-09T13:13:18.539Z,100746.78
2023-05-09T13:15:46.584Z,100741.44
2023-05-09T13:18:13.188Z,100741.06
2023-05-09T13:20:39.801Z,100731.38
2023-05-09T13:23:06.314Z,100731.94
2023-05-09T13:25:32.832Z,100724.84
2023-05-09T13:27:59.401Z,100728.56
2023-05-09T13:30:25.918Z,100714.66
2023-05-09T13:32:52.603Z,100721.75
2023-05-09T13:35:19.158Z,100713.72
2023-05-09T13:37:46.601Z,100712.16
2023-05-09T13:40:13.833Z,100704.59
2023-05-09T13:42:40.907Z,100704.19
2023-05-09T13:45:08.776Z,100704.69
2023-05-09T13:47:37.957Z,100704.34
2023-05-09T13:50:06.028Z,100694.19
2023-05-09T13:52:32.760Z,100694.63
2023-05-09T13:54:59.425Z,100682.66
2023-05-09T13:57:26.267Z,100687.50
2023-05-09T13:59:53.348Z,100680.66
2023-05-09T14:02:19.824Z,100675.75
2023-05-09T14:04:46.388Z,100675.94
2023-05-09T14:07:14.769Z,100683.91
2023-05-09T14:09:42.123Z,100677.78
2023-05-09T14:12:09.562Z,100671.06
2023-05-09T14:14:36.172Z,100677.41
2023-05-09T14:17:02.894Z,100667.00
2023-05-09T14:19:30.229Z,100673.69
2023-05-09T14:21:56.853Z,100674.28
2023-05-09T14:24:26.306Z,100668.22
2023-05-09T14:26:52.920Z,100667.00
2023-05-09T14:29:19.801Z,100659.28
2023-05-09T14:31:48.522Z,100648.41
2023-05-09T14:34:15.017Z,100651.44
2023-05-09T14:36:41.571Z,100646.97
2023-05-09T14:39:08.630Z,100642.88
2023-05-09T14:41:35.107Z,100640.88
2023-05-09T14:44:01.606Z,100636.81
2023-05-09T14:46:28.187Z,100635.63
2023-05-09T14:48:54.668Z,100639.56
2023-05-09T14:51:21.753Z,100637.91
2023-05-09T14:53:48.272Z,100639.00
2023-05-09T14:56:14.660Z,100634.94
2023-05-09T14:58:41.061Z,100625.41
2023-05-09T15:01:07.763Z,100633.59
2023-05-09T15:03:34.247Z,100627.25
2023-05-09T15:06:00.795Z,100634.84
2023-05-09T15:08:27.351Z,100625.53
2023-05-09T15:10:53.821Z,100622.50
2023-05-09T15:13:20.816Z,100626.19
2023-05-09T15:15:47.773Z,100626.97
2023-05-09T15:18:16.469Z,100626.59
2023-05-09T15:20:43.364Z,100623.97
2023-05-09T15:23:12.460Z,100627.19
2023-05-09T15:25:41.647Z,100620.19
2023-05-09T15:28:08.417Z,100626.34
2023-05-09T15:30:38.130Z,100620.84
2023-05-09T15:33:05.306Z,100611.66
2023-05-09T15:35:32.219Z,100616.75
2023-05-09T15:37:59.323Z,100617.47
2023-05-09T15:40:25.817Z,100609.28
2023-05-09T15:42:52.410Z,100611.97
2023-05-09T15:45:18.982Z,100615.59
2023-05-09T15:47:45.562Z,100614.59
2023-05-09T15:50:12.609Z,100612.38
2023-05-09T15:52:39.081Z,100604.63
2023-05-09T15:55:07.139Z,100599.63
2023-05-09T15:57:33.733Z,100597.75
2023-05-09T16:00:00.237Z,100597.16
2023-05-09T16:02:28.533Z,100597.34
2023-05-09T16:04:55.075Z,100598.13
2023-05-09T16:07:21.889Z,100592.50
2023-05-09T16:09:48.360Z,100597.59
2023-05-09T16:12:15.131Z,100601.06
2023-05-09T16:14:41.755Z,100601.31
2023-05-09T16:17:14.269Z,100604.84
2023-05-09T16:19:43.820Z,100610.00
2023-05-09T16:22:10.364Z,100600.09
2023-05-09T16:24:37.597Z,100609.09
2023-05-09T16:27:04.099Z,100594.88
2023-05-09T16:29:31.828Z,100592.63
2023-05-09T16:31:58.250Z,100600.53
2023-05-09T16:34:24.808Z,100600.47
2023-05-09T16:36:52.241Z,100595.38
2023-05-09T16:39:18.677Z,100573.41
2023-05-09T16:41:45.342Z,100581.94
2023-05-09T16:44:11.825Z,100581.13
2023-05-09T16:46:38.499Z,100572.41
2023-05-09T16:49:05.812Z,100572.41
2023-05-09T16:51:32.500Z,100570.66
2023-05-09T16:53:59.050Z,100572.03
2023-05-09T16:56:25.580Z,100579.91
2023-05-09T16:58:52.095Z,100571.16
2023-05-09T17:01:18.570Z,100579.41
2023-05-09T17:03:55.072Z,100578.59
2023-05-09T17:06:21.981Z,100573.31
2023-05-09T17:08:49.667Z,100572.22
2023-05-09T17:11:16.335Z,100566.84
2023-05-09T17:13:44.024Z,100560.66
2023-05-09T17:16:10.848Z,100558.94
2023-05-09T17:18:38.598Z,100565.94
2023-05-09T17:21:05.442Z,100567.38
2023-05-09T17:23:31.916Z,100569.47
2023-05-09T17:25:58.553Z,100564.25
2023-05-09T17:28:25.107Z,100567.75
2023-05-09T17:30:51.670Z,100566.50
2023-05-09T17:33:18.140Z,100564.50
2023-05-09T17:35:44.592Z,100563.31
2023-05-09T17:38:11.018Z,100567.28
2023-05-09T17:40:37.949Z,100570.28
2023-05-09T17:43:04.780Z,100567.50
2023-05-09T17:45:31.355Z,100569.91
2023-05-09T17:47:58.531Z,100572.47
2023-05-09T17:50:24.951Z,100568.44
2023-05-09T17:53:00.865Z,100567.47
2023-05-09T17:55:27.709Z,100572.38
2023-05-09T17:57:54.161Z,100574.72
2023-05-09T18:00:20.702Z,100575.47
2023-05-09T18:02:48.228Z,100579.66
2023-05-09T18:05:18.211Z,100582.75
2023-05-09T18:07:44.676Z,100580.06
2023-05-09T18:10:15.079Z,100585.84
2023-05-09T18:12:45.057Z,100586.63
2023-05-09T18:15:12.297Z,100585.81
2023-05-09T18:17:39.169Z,100590.06
2023-05-09T18:20:07.991Z,100582.88
2023-05-09T18:22:37.548Z,100591.84
2023-05-09T18:25:04.384Z,100592.41
2023-05-09T18:27:30.857Z,100591.00
2023-05-09T18:29:57.275Z,100599.34
2023-05-09T18:32:23.813Z,100595.00
2023-05-09T18:34:50.378Z,100595.81
2023-05-09T18:37:17.592Z,100594.38
2023-05-09T18:39:49.917Z,100598.94
2023-05-09T18:42:16.596Z,100600.56
2023-05-09T18:44:49.213Z,100606.16
2023-05-09T18:47:15.887Z,100606.09
2023-05-09T18:49:42.547Z,100598.19
2023-05-09T18:52:09.728Z,100595.06
2023-05-09T18:54:36.599Z,100595.53
2023-05-09T18:57:03.317Z,100594.03
2023-05-09T18:59:29.713Z,100599.28
2023-05-09T19:01:56.210Z,100593.72
2023-05-09T19:04:22.761Z,100601.72
2023-05-09T19:06:49.390Z,100603.81
2023-05-09T19:09:15.892Z,100601.09
2023-05-09T19:11:42.316Z,100602.53
2023-05-09T19:14:08.805Z,100603.25
2023-05-09T19:16:35.374Z,100591.94
2023-05-09T19:19:01.841Z,100603.91
2023-05-09T19:21:28.798Z,100603.06
2023-05-09T19:23:55.188Z,100611.03
2023-05-09T19:26:21.994Z,100609.56
2023-05-09T19:28:48.532Z,100606.13
2023-05-09T19:31:15.449Z,100607.75
2023-05-09T19:33:45.347Z,100602.81
2023-05-09T19:36:11.928Z,100600.72
2023-05-09T19:38:38.376Z,100602.53
2023-05-09T19:41:05.165Z,100593.72
2023-05-09T19:43:32.382Z,100599.63
2023-05-09T19:45:59.875Z,100606.63
2023-05-09T19:48:26.377Z,100594.78
2023-05-09T19:50:56.616Z,100596.38
2023-05-09T19:53:23.049Z,100601.56
2023-05-09T19:55:49.441Z,100593.03
2023-05-09T19:58:17.746Z,100597.06
2023-05-09T20:00:44.725Z,100591.16
2023-05-09T20:03:11.197Z,100584.69
2023-05-09T20:05:37.828Z,100579.00
2023-05-09T20:08:04.276Z,100587.06
2023-05-09T20:10:30.854Z,100585.25
2023-05-09T20:12:59.273Z,100579.53
2023-05-09T20:15:25.884Z,100575.50
2023-05-09T20:17:52.387Z,100582.22
2023-05-09T20:20:19.493Z,100588.91
2023-05-09T20:22:45.914Z,100594.47
2023-05-09T20:25:13.545Z,100583.88
2023-05-09T20:27:39.948Z,100585.84
2023-05-09T20:30:07.123Z,100598.50
2023-05-09T20:32:34.703Z,100605.66
2023-05-09T20:35:01.170Z,100609.41
2023-05-09T20:37:27.719Z,100612.22
2023-05-09T20:39:54.209Z,100609.91
2023-05-09T20:42:20.649Z,100607.81
2023-05-09T20:44:47.737Z,100600.38
2023-05-09T20:47:14.200Z,100595.50
2023-05-09T20:49:40.636Z,100591.53
2023-05-09T20:52:07.042Z,100586.84
2023-05-09T20:54:33.484Z,100582.72
2023-05-09T20:56:59.924Z,100580.06
2023-05-09T20:59:26.444Z,100577.69
2023-05-09T21:01:55.437Z,100568.09
2023-05-09T21:04:23.065Z,100575.03
2023-05-09T21:06:49.518Z,100575.56
2023-05-09T21:09:15.995Z,100568.97
2023-05-09T21:11:42.548Z,100569.97
2023-05-09T21:14:09.687Z,100573.16
2023-05-09T21:16:36.200Z,100571.38
2023-05-09T21:19:04.867Z,100571.22
2023-05-09T21:21:32.966Z,100575.22
2023-05-09T21:24:03.153Z,100572.16
2023-05-09T21:26:30.292Z,100579.75
2023-05-09T21:28:56.819Z,100576.63
2023-05-09T21:31:23.350Z,100563.47
2023-05-09T21:33:49.800Z,100573.22
2023-05-09T21:36:16.173Z,100559.66
2023-05-09T21:38:42.554Z,100554.88
2023-05-09T21:41:10.079Z,100557.88
2023-05-09T21:43:37.477Z,100551.78
2023-05-09T21:46:05.403Z,100548.66
2023-05-09T21:48:32.060Z,100553.16
2023-05-09T21:51:02.524Z,100553.66
2023-05-09T21:53:29.214Z,100550.84
2023-05-09T21:55:55.692Z,100552.09
2023-05-09T21:58:22.162Z,100564.25
2023-05-09T22:00:48.613Z,100562.16
2023-05-09T22:03:15.176Z,100569.03
2023-05-09T22:05:41.716Z,100590.22
2023-05-09T22:08:08.147Z,100581.72
2023-05-09T22:10:34.629Z,100582.44
2023-05-09T22:13:01.136Z,100571.25
2023-05-09T22:15:27.831Z,100574.91
2023-05-09T22:17:54.295Z,100564.03
2023-05-09T22:20:21.081Z,100562.13
2023-05-09T22:22:47.485Z,100565.13
2023-05-09T22:25:14.205Z,100562.94
2023-05-09T22:27:40.657Z,100561.34
2023-05-09T22:30:09.064Z,100556.84
2023-05-09T22:32:35.559Z,100544.28
2023-05-09T22:35:02.230Z,100539.28
2023-05-09T22:37:28.695Z,100536.25
2023-05-09T22:39:55.668Z,100537.06
2023-05-09T22:42:22.183Z,100536.94
2023-05-09T22:44:49.730Z,100540.09
2023-05-09T22:47:16.347Z,100546.84
2023-05-09T22:49:43.603Z,100541.03
2023-05-09T22:52:11.678Z,100533.97
2023-05-09T22:54:38.127Z,100537.44
2023-05-09T22:57:04.505Z,100538.06
2023-05-09T22:59:32.033Z,100532.88
2023-05-09T23:01:59.194Z,100531.66
2023-05-09T23:04:25.662Z,100532.66
2023-05-09T23:06:52.053Z,100521.69
2023-05-09T23:09:18.433Z,100520.69
2023-05-09T23:11:44.869Z,100522.97
2023-05-09T23:14:11.396Z,100519.38
2023-05-09T23:16:37.808Z,100525.19
2023-05-09T23:19:04.363Z,100520.28
2023-05-09T23:21:30.760Z,100518.19
2023-05-09T23:23:57.192Z,100520.75
2023-05-09T23:26:23.631Z,100518.97
2023-05-09T23:28:50.179Z,100519.28
2023-05-09T23:31:16.664Z,100518.31
2023-05-09T23:33:43.870Z,100513.50
2023-05-09T23:36:10.298Z,100512.03
2023-05-09T23:38:36.696Z,100516.34
2023-05-09T23:41:03.149Z,100512.03
2023-05-09T23:43:29.574Z,100504.03
2023-05-09T23:46:00.329Z,100509.13
2023-05-09T23:48:26.797Z,100509.19
2023-05-09T23:50:53.281Z,100506.31
2023-05-09T23:53:19.695Z,100506.50
2023-05-09T23:55:46.079Z,100502.31
2023-05-09T23:58:12.628Z,100505.72
